sensor_id;sensor_type;location;lat;lon;timestamp;P1;durP1;ratioP1;P2;durP2;ratioP2
24157;SDS011;12316;50.904;4.200;2022-12-11T00:01:10;29.70;;;17.15;;
24157;SDS011;12316;50.904;4.200;2022-12-11T00:03:37;29.05;;;16.25;;
24157;SDS011;12316;50.904;4.200;2022-12-11T00:06:04;27.30;;;16.23;;
24157;SDS011;12316;50.904;4.200;2022-12-11T00:08:34;30.55;;;17.67;;
24157;SDS011;12316;50.904;4.200;2022-12-11T00:11:01;30.85;;;16.73;;
24157;SDS011;12316;50.904;4.200;2022-12-11T00:13:27;32.00;;;16.92;;
24157;SDS011;12316;50.904;4.200;2022-12-11T00:15:53;31.40;;;16.90;;
24157;SDS011;12316;50.904;4.200;2022-12-11T00:18:18;29.83;;;16.08;;
24157;SDS011;12316;50.904;4.200;2022-12-11T00:20:44;29.33;;;16.55;;
24157;SDS011;12316;50.904;4.200;2022-12-11T00:23:09;28.60;;;16.42;;
24157;SDS011;12316;50.904;4.200;2022-12-11T00:25:39;28.58;;;16.00;;
24157;SDS011;12316;50.904;4.200;2022-12-11T00:28:06;30.25;;;15.77;;
24157;SDS011;12316;50.904;4.200;2022-12-11T00:30:32;30.52;;;16.42;;
24157;SDS011;12316;50.904;4.200;2022-12-11T00:32:57;29.45;;;16.77;;
24157;SDS011;12316;50.904;4.200;2022-12-11T00:35:23;30.63;;;16.60;;
24157;SDS011;12316;50.904;4.200;2022-12-11T00:37:49;30.17;;;17.05;;
24157;SDS011;12316;50.904;4.200;2022-12-11T00:40:15;28.70;;;16.10;;
24157;SDS011;12316;50.904;4.200;2022-12-11T00:42:41;32.20;;;17.13;;
24157;SDS011;12316;50.904;4.200;2022-12-11T00:45:06;29.60;;;16.40;;
24157;SDS011;12316;50.904;4.200;2022-12-11T00:47:32;28.52;;;16.40;;
24157;SDS011;12316;50.904;4.200;2022-12-11T00:49:58;30.80;;;17.02;;
24157;SDS011;12316;50.904;4.200;2022-12-11T00:52:23;28.85;;;16.67;;
24157;SDS011;12316;50.904;4.200;2022-12-11T00:54:49;28.10;;;16.70;;
24157;SDS011;12316;50.904;4.200;2022-12-11T00:57:14;27.75;;;15.98;;
24157;SDS011;12316;50.904;4.200;2022-12-11T00:59:40;32.38;;;16.80;;
24157;SDS011;12316;50.904;4.200;2022-12-11T01:02:05;27.58;;;16.05;;
24157;SDS011;12316;50.904;4.200;2022-12-11T01:04:31;30.52;;;17.00;;
24157;SDS011;12316;50.904;4.200;2022-12-11T01:07:00;29.02;;;16.73;;
24157;SDS011;12316;50.904;4.200;2022-12-11T01:09:25;32.22;;;16.70;;
24157;SDS011;12316;50.904;4.200;2022-12-11T01:12:09;30.00;;;15.85;;
24157;SDS011;12316;50.904;4.200;2022-12-11T01:14:36;30.92;;;16.83;;
24157;SDS011;12316;50.904;4.200;2022-12-11T01:17:01;30.08;;;16.48;;
24157;SDS011;12316;50.904;4.200;2022-12-11T01:19:28;28.85;;;16.73;;
24157;SDS011;12316;50.904;4.200;2022-12-11T01:21:54;29.75;;;16.80;;
24157;SDS011;12316;50.904;4.200;2022-12-11T01:24:19;30.65;;;16.55;;
24157;SDS011;12316;50.904;4.200;2022-12-11T01:26:45;30.00;;;16.58;;
24157;SDS011;12316;50.904;4.200;2022-12-11T01:29:10;30.90;;;16.25;;
24157;SDS011;12316;50.904;4.200;2022-12-11T01:31:36;30.15;;;16.15;;
24157;SDS011;12316;50.904;4.200;2022-12-11T01:34:02;29.60;;;16.60;;
24157;SDS011;12316;50.904;4.200;2022-12-11T01:36:28;28.33;;;16.05;;
24157;SDS011;12316;50.904;4.200;2022-12-11T01:38:53;27.13;;;16.40;;
24157;SDS011;12316;50.904;4.200;2022-12-11T01:41:20;30.95;;;16.63;;
24157;SDS011;12316;50.904;4.200;2022-12-11T01:43:58;27.83;;;16.63;;
24157;SDS011;12316;50.904;4.200;2022-12-11T01:46:24;28.98;;;16.40;;
24157;SDS011;12316;50.904;4.200;2022-12-11T01:48:51;30.17;;;16.70;;
24157;SDS011;12316;50.904;4.200;2022-12-11T01:51:17;30.23;;;16.70;;
24157;SDS011;12316;50.904;4.200;2022-12-11T01:53:45;30.50;;;17.42;;
24157;SDS011;12316;50.904;4.200;2022-12-11T01:56:15;31.88;;;17.15;;
24157;SDS011;12316;50.904;4.200;2022-12-11T01:58:52;31.42;;;17.65;;
24157;SDS011;12316;50.904;4.200;2022-12-11T02:01:37;31.00;;;16.85;;
24157;SDS011;12316;50.904;4.200;2022-12-11T02:04:06;31.85;;;17.65;;
24157;SDS011;12316;50.904;4.200;2022-12-11T02:06:37;30.95;;;17.70;;
24157;SDS011;12316;50.904;4.200;2022-12-11T02:09:05;32.33;;;17.43;;
24157;SDS011;12316;50.904;4.200;2022-12-11T02:11:37;33.75;;;18.48;;
24157;SDS011;12316;50.904;4.200;2022-12-11T02:14:12;28.17;;;17.20;;
24157;SDS011;12316;50.904;4.200;2022-12-11T02:16:55;32.80;;;17.98;;
24157;SDS011;12316;50.904;4.200;2022-12-11T02:21:56;32.95;;;18.80;;
24157;SDS011;12316;50.904;4.200;2022-12-11T02:30:00;31.33;;;18.00;;
24157;SDS011;12316;50.904;4.200;2022-12-11T02:35:14;30.65;;;18.02;;
24157;SDS011;12316;50.904;4.200;2022-12-11T02:37:44;21.98;;;13.57;;
24157;SDS011;12316;50.904;4.200;2022-12-11T02:40:12;33.30;;;18.83;;
24157;SDS011;12316;50.904;4.200;2022-12-11T02:42:43;35.85;;;19.85;;
24157;SDS011;12316;50.904;4.200;2022-12-11T02:45:11;33.78;;;19.17;;
24157;SDS011;12316;50.904;4.200;2022-12-11T02:47:39;33.55;;;19.27;;
24157;SDS011;12316;50.904;4.200;2022-12-11T02:50:08;40.25;;;20.13;;
24157;SDS011;12316;50.904;4.200;2022-12-11T02:52:38;34.38;;;19.63;;
24157;SDS011;12316;50.904;4.200;2022-12-11T02:55:07;35.03;;;20.70;;
24157;SDS011;12316;50.904;4.200;2022-12-11T02:57:41;37.70;;;20.20;;
24157;SDS011;12316;50.904;4.200;2022-12-11T03:00:13;38.67;;;20.48;;
24157;SDS011;12316;50.904;4.200;2022-12-11T03:02:40;36.55;;;20.85;;
24157;SDS011;12316;50.904;4.200;2022-12-11T03:05:07;38.67;;;21.92;;
24157;SDS011;12316;50.904;4.200;2022-12-11T03:07:35;39.88;;;22.55;;
24157;SDS011;12316;50.904;4.200;2022-12-11T03:10:03;41.20;;;22.02;;
24157;SDS011;12316;50.904;4.200;2022-12-11T03:12:33;39.30;;;21.08;;
24157;SDS011;12316;50.904;4.200;2022-12-11T03:15:03;36.57;;;20.87;;
24157;SDS011;12316;50.904;4.200;2022-12-11T03:20:38;39.40;;;21.83;;
24157;SDS011;12316;50.904;4.200;2022-12-11T03:26:05;42.40;;;22.08;;
24157;SDS011;12316;50.904;4.200;2022-12-11T03:31:24;38.40;;;21.38;;
24157;SDS011;12316;50.904;4.200;2022-12-11T03:33:53;36.35;;;21.10;;
24157;SDS011;12316;50.904;4.200;2022-12-11T03:36:24;37.90;;;20.85;;
24157;SDS011;12316;50.904;4.200;2022-12-11T03:38:57;40.08;;;20.75;;
24157;SDS011;12316;50.904;4.200;2022-12-11T03:41:26;41.97;;;21.20;;
24157;SDS011;12316;50.904;4.200;2022-12-11T03:43:55;40.38;;;21.05;;
24157;SDS011;12316;50.904;4.200;2022-12-11T03:46:22;38.97;;;20.88;;
24157;SDS011;12316;50.904;4.200;2022-12-11T03:48:54;36.40;;;21.17;;
24157;SDS011;12316;50.904;4.200;2022-12-11T03:51:25;38.13;;;20.42;;
24157;SDS011;12316;50.904;4.200;2022-12-11T03:53:52;35.97;;;19.55;;
24157;SDS011;12316;50.904;4.200;2022-12-11T03:56:20;36.72;;;20.20;;
24157;SDS011;12316;50.904;4.200;2022-12-11T03:58:47;35.53;;;21.05;;
24157;SDS011;12316;50.904;4.200;2022-12-11T04:01:13;35.30;;;20.15;;
24157;SDS011;12316;50.904;4.200;2022-12-11T04:03:39;37.67;;;20.58;;
24157;SDS011;12316;50.904;4.200;2022-12-11T04:06:04;35.85;;;20.88;;
24157;SDS011;12316;50.904;4.200;2022-12-11T04:08:30;34.72;;;19.95;;
24157;SDS011;12316;50.904;4.200;2022-12-11T04:10:55;37.70;;;19.98;;
24157;SDS011;12316;50.904;4.200;2022-12-11T04:13:40;35.33;;;20.92;;
24157;SDS011;12316;50.904;4.200;2022-12-11T04:16:06;40.30;;;21.15;;
24157;SDS011;12316;50.904;4.200;2022-12-11T04:18:32;33.83;;;19.10;;
24157;SDS011;12316;50.904;4.200;2022-12-11T04:21:17;37.72;;;20.88;;
24157;SDS011;12316;50.904;4.200;2022-12-11T04:24:01;34.95;;;19.73;;
24157;SDS011;12316;50.904;4.200;2022-12-11T04:26:40;38.83;;;20.75;;
24157;SDS011;12316;50.904;4.200;2022-12-11T04:29:07;36.05;;;20.67;;
24157;SDS011;12316;50.904;4.200;2022-12-11T04:31:33;37.15;;;21.60;;
24157;SDS011;12316;50.904;4.200;2022-12-11T04:33:58;39.05;;;21.60;;
24157;SDS011;12316;50.904;4.200;2022-12-11T04:36:24;33.95;;;20.45;;
24157;SDS011;12316;50.904;4.200;2022-12-11T04:38:49;36.03;;;21.52;;
24157;SDS011;12316;50.904;4.200;2022-12-11T04:41:15;38.90;;;21.63;;
24157;SDS011;12316;50.904;4.200;2022-12-11T04:43:41;38.63;;;22.38;;
24157;SDS011;12316;50.904;4.200;2022-12-11T04:46:11;40.67;;;22.25;;
24157;SDS011;12316;50.904;4.200;2022-12-11T04:48:39;43.83;;;22.20;;
24157;SDS011;12316;50.904;4.200;2022-12-11T04:51:05;41.97;;;23.45;;
24157;SDS011;12316;50.904;4.200;2022-12-11T04:53:32;45.40;;;23.00;;
24157;SDS011;12316;50.904;4.200;2022-12-11T04:55:58;41.17;;;23.33;;
24157;SDS011;12316;50.904;4.200;2022-12-11T04:58:24;47.08;;;24.92;;
24157;SDS011;12316;50.904;4.200;2022-12-11T05:00:50;49.30;;;25.00;;
24157;SDS011;12316;50.904;4.200;2022-12-11T05:03:16;46.90;;;24.35;;
24157;SDS011;12316;50.904;4.200;2022-12-11T05:05:49;48.03;;;25.00;;
24157;SDS011;12316;50.904;4.200;2022-12-11T05:08:17;47.65;;;24.63;;
24157;SDS011;12316;50.904;4.200;2022-12-11T05:10:43;47.55;;;25.35;;
24157;SDS011;12316;50.904;4.200;2022-12-11T05:13:08;47.53;;;24.77;;
24157;SDS011;12316;50.904;4.200;2022-12-11T05:15:34;47.20;;;24.55;;
24157;SDS011;12316;50.904;4.200;2022-12-11T05:18:03;46.20;;;23.98;;
24157;SDS011;12316;50.904;4.200;2022-12-11T05:20:29;47.42;;;24.63;;
24157;SDS011;12316;50.904;4.200;2022-12-11T05:22:54;49.88;;;25.92;;
24157;SDS011;12316;50.904;4.200;2022-12-11T05:25:20;46.20;;;24.33;;
24157;SDS011;12316;50.904;4.200;2022-12-11T05:27:45;47.50;;;24.77;;
24157;SDS011;12316;50.904;4.200;2022-12-11T05:30:11;49.65;;;25.83;;
24157;SDS011;12316;50.904;4.200;2022-12-11T05:32:36;49.22;;;25.23;;
24157;SDS011;12316;50.904;4.200;2022-12-11T05:35:02;48.50;;;24.88;;
24157;SDS011;12316;50.904;4.200;2022-12-11T05:37:28;51.33;;;24.80;;
24157;SDS011;12316;50.904;4.200;2022-12-11T05:39:53;48.00;;;25.05;;
24157;SDS011;12316;50.904;4.200;2022-12-11T05:42:19;46.03;;;24.10;;
24157;SDS011;12316;50.904;4.200;2022-12-11T05:44:44;51.17;;;25.67;;
24157;SDS011;12316;50.904;4.200;2022-12-11T05:47:10;49.17;;;25.75;;
24157;SDS011;12316;50.904;4.200;2022-12-11T05:49:36;48.45;;;24.83;;
24157;SDS011;12316;50.904;4.200;2022-12-11T05:52:01;46.50;;;24.40;;
24157;SDS011;12316;50.904;4.200;2022-12-11T05:54:27;50.78;;;25.33;;
24157;SDS011;12316;50.904;4.200;2022-12-11T05:56:53;47.03;;;25.00;;
24157;SDS011;12316;50.904;4.200;2022-12-11T05:59:18;47.78;;;25.80;;
24157;SDS011;12316;50.904;4.200;2022-12-11T06:01:44;48.58;;;25.15;;
24157;SDS011;12316;50.904;4.200;2022-12-11T06:04:10;46.05;;;24.75;;
24157;SDS011;12316;50.904;4.200;2022-12-11T06:06:36;48.35;;;25.15;;
24157;SDS011;12316;50.904;4.200;2022-12-11T06:09:04;50.40;;;25.77;;
24157;SDS011;12316;50.904;4.200;2022-12-11T06:11:32;47.13;;;24.77;;
24157;SDS011;12316;50.904;4.200;2022-12-11T06:13:59;47.50;;;24.80;;
24157;SDS011;12316;50.904;4.200;2022-12-11T06:16:25;51.58;;;26.15;;
24157;SDS011;12316;50.904;4.200;2022-12-11T06:18:51;52.97;;;26.70;;
24157;SDS011;12316;50.904;4.200;2022-12-11T06:21:18;52.58;;;25.75;;
24157;SDS011;12316;50.904;4.200;2022-12-11T06:23:46;50.50;;;25.30;;
24157;SDS011;12316;50.904;4.200;2022-12-11T06:26:12;54.22;;;27.60;;
24157;SDS011;12316;50.904;4.200;2022-12-11T06:28:38;52.92;;;26.75;;
24157;SDS011;12316;50.904;4.200;2022-12-11T06:31:04;52.33;;;26.33;;
24157;SDS011;12316;50.904;4.200;2022-12-11T06:33:30;55.15;;;27.15;;
24157;SDS011;12316;50.904;4.200;2022-12-11T06:36:00;48.90;;;26.02;;
24157;SDS011;12316;50.904;4.200;2022-12-11T06:38:26;50.28;;;25.55;;
24157;SDS011;12316;50.904;4.200;2022-12-11T06:40:59;54.67;;;26.95;;
24157;SDS011;12316;50.904;4.200;2022-12-11T06:43:26;49.92;;;25.23;;
24157;SDS011;12316;50.904;4.200;2022-12-11T06:45:52;47.88;;;25.20;;
24157;SDS011;12316;50.904;4.200;2022-12-11T06:48:18;50.65;;;25.98;;
24157;SDS011;12316;50.904;4.200;2022-12-11T06:50:44;54.05;;;25.85;;
24157;SDS011;12316;50.904;4.200;2022-12-11T06:53:10;55.97;;;26.73;;
24157;SDS011;12316;50.904;4.200;2022-12-11T06:55:37;51.53;;;25.02;;
24157;SDS011;12316;50.904;4.200;2022-12-11T06:58:03;53.60;;;25.38;;
24157;SDS011;12316;50.904;4.200;2022-12-11T07:00:29;52.90;;;25.42;;
24157;SDS011;12316;50.904;4.200;2022-12-11T07:02:55;51.58;;;25.35;;
24157;SDS011;12316;50.904;4.200;2022-12-11T07:05:21;47.88;;;24.05;;
24157;SDS011;12316;50.904;4.200;2022-12-11T07:07:47;49.00;;;24.33;;
24157;SDS011;12316;50.904;4.200;2022-12-11T07:10:13;53.50;;;25.35;;
24157;SDS011;12316;50.904;4.200;2022-12-11T07:12:39;49.95;;;24.35;;
24157;SDS011;12316;50.904;4.200;2022-12-11T07:15:06;52.80;;;25.15;;
24157;SDS011;12316;50.904;4.200;2022-12-11T07:17:32;50.65;;;25.10;;
24157;SDS011;12316;50.904;4.200;2022-12-11T07:19:57;53.80;;;24.92;;
24157;SDS011;12316;50.904;4.200;2022-12-11T07:22:23;48.80;;;23.40;;
24157;SDS011;12316;50.904;4.200;2022-12-11T07:24:49;47.28;;;22.83;;
24157;SDS011;12316;50.904;4.200;2022-12-11T07:27:15;49.05;;;24.17;;
24157;SDS011;12316;50.904;4.200;2022-12-11T07:29:41;49.28;;;23.73;;
24157;SDS011;12316;50.904;4.200;2022-12-11T07:32:06;47.63;;;23.80;;
24157;SDS011;12316;50.904;4.200;2022-12-11T07:34:32;50.92;;;23.45;;
24157;SDS011;12316;50.904;4.200;2022-12-11T07:36:57;50.40;;;22.60;;
24157;SDS011;12316;50.904;4.200;2022-12-11T07:39:23;46.95;;;23.70;;
24157;SDS011;12316;50.904;4.200;2022-12-11T07:41:49;44.60;;;22.35;;
24157;SDS011;12316;50.904;4.200;2022-12-11T07:44:15;46.95;;;23.98;;
24157;SDS011;12316;50.904;4.200;2022-12-11T07:46:41;46.60;;;23.40;;
24157;SDS011;12316;50.904;4.200;2022-12-11T07:49:06;47.50;;;23.85;;
24157;SDS011;12316;50.904;4.200;2022-12-11T07:51:33;44.05;;;21.52;;
24157;SDS011;12316;50.904;4.200;2022-12-11T07:54:01;45.63;;;22.67;;
24157;SDS011;12316;50.904;4.200;2022-12-11T07:56:32;42.15;;;21.25;;
24157;SDS011;12316;50.904;4.200;2022-12-11T07:58:59;46.80;;;21.98;;
24157;SDS011;12316;50.904;4.200;2022-12-11T08:01:29;42.65;;;22.30;;
24157;SDS011;12316;50.904;4.200;2022-12-11T08:04:00;41.72;;;20.77;;
24157;SDS011;12316;50.904;4.200;2022-12-11T08:06:30;43.40;;;22.45;;
24157;SDS011;12316;50.904;4.200;2022-12-11T08:08:59;43.40;;;22.52;;
24157;SDS011;12316;50.904;4.200;2022-12-11T08:11:26;42.72;;;21.38;;
24157;SDS011;12316;50.904;4.200;2022-12-11T08:13:52;46.45;;;21.30;;
24157;SDS011;12316;50.904;4.200;2022-12-11T08:16:18;42.83;;;22.00;;
24157;SDS011;12316;50.904;4.200;2022-12-11T08:18:45;45.80;;;22.25;;
24157;SDS011;12316;50.904;4.200;2022-12-11T08:21:12;41.90;;;21.52;;
24157;SDS011;12316;50.904;4.200;2022-12-11T08:23:39;43.72;;;22.85;;
24157;SDS011;12316;50.904;4.200;2022-12-11T08:26:07;44.42;;;21.70;;
24157;SDS011;12316;50.904;4.200;2022-12-11T08:28:34;43.10;;;21.20;;
24157;SDS011;12316;50.904;4.200;2022-12-11T08:31:02;40.67;;;20.60;;
24157;SDS011;12316;50.904;4.200;2022-12-11T08:33:29;41.55;;;21.08;;
24157;SDS011;12316;50.904;4.200;2022-12-11T08:35:55;44.13;;;21.75;;
24157;SDS011;12316;50.904;4.200;2022-12-11T08:38:20;45.10;;;21.73;;
24157;SDS011;12316;50.904;4.200;2022-12-11T08:40:46;46.58;;;21.80;;
24157;SDS011;12316;50.904;4.200;2022-12-11T08:43:11;45.25;;;21.77;;
24157;SDS011;12316;50.904;4.200;2022-12-11T08:45:37;45.38;;;21.88;;
24157;SDS011;12316;50.904;4.200;2022-12-11T08:48:03;44.58;;;22.67;;
24157;SDS011;12316;50.904;4.200;2022-12-11T08:50:29;44.83;;;21.42;;
24157;SDS011;12316;50.904;4.200;2022-12-11T08:52:55;44.50;;;20.90;;
24157;SDS011;12316;50.904;4.200;2022-12-11T08:55:21;47.00;;;21.00;;
24157;SDS011;12316;50.904;4.200;2022-12-11T08:57:47;42.17;;;21.67;;
24157;SDS011;12316;50.904;4.200;2022-12-11T09:00:13;44.38;;;21.13;;
24157;SDS011;12316;50.904;4.200;2022-12-11T09:02:39;43.72;;;20.08;;
24157;SDS011;12316;50.904;4.200;2022-12-11T09:05:05;44.47;;;21.23;;
24157;SDS011;12316;50.904;4.200;2022-12-11T09:07:33;43.13;;;20.38;;
24157;SDS011;12316;50.904;4.200;2022-12-11T09:09:59;45.28;;;19.55;;
24157;SDS011;12316;50.904;4.200;2022-12-11T09:12:25;43.38;;;20.17;;
24157;SDS011;12316;50.904;4.200;2022-12-11T09:14:51;42.13;;;18.85;;
24157;SDS011;12316;50.904;4.200;2022-12-11T09:17:17;46.40;;;21.20;;
24157;SDS011;12316;50.904;4.200;2022-12-11T09:19:43;43.38;;;20.08;;
24157;SDS011;12316;50.904;4.200;2022-12-11T09:22:08;45.90;;;21.27;;
24157;SDS011;12316;50.904;4.200;2022-12-11T09:24:35;43.72;;;20.65;;
24157;SDS011;12316;50.904;4.200;2022-12-11T09:27:02;44.35;;;20.40;;
24157;SDS011;12316;50.904;4.200;2022-12-11T09:29:28;45.00;;;20.38;;
24157;SDS011;12316;50.904;4.200;2022-12-11T09:31:53;41.30;;;18.75;;
24157;SDS011;12316;50.904;4.200;2022-12-11T09:34:19;40.08;;;19.02;;
24157;SDS011;12316;50.904;4.200;2022-12-11T09:36:45;43.88;;;20.45;;
24157;SDS011;12316;50.904;4.200;2022-12-11T09:39:11;41.78;;;19.63;;
24157;SDS011;12316;50.904;4.200;2022-12-11T09:41:39;47.22;;;21.35;;
24157;SDS011;12316;50.904;4.200;2022-12-11T09:46:41;46.55;;;21.48;;
24157;SDS011;12316;50.904;4.200;2022-12-11T09:49:42;44.35;;;20.83;;
24157;SDS011;12316;50.904;4.200;2022-12-11T09:55:09;39.17;;;18.88;;
24157;SDS011;12316;50.904;4.200;2022-12-11T10:00:47;44.75;;;20.55;;
24157;SDS011;12316;50.904;4.200;2022-12-11T10:06:20;42.00;;;19.90;;
24157;SDS011;12316;50.904;4.200;2022-12-11T10:16:53;42.35;;;19.20;;
24157;SDS011;12316;50.904;4.200;2022-12-11T10:19:26;42.25;;;19.70;;
24157;SDS011;12316;50.904;4.200;2022-12-11T10:21:54;42.40;;;19.73;;
24157;SDS011;12316;50.904;4.200;2022-12-11T10:27:19;41.47;;;18.98;;
24157;SDS011;12316;50.904;4.200;2022-12-11T10:29:46;42.60;;;19.58;;
24157;SDS011;12316;50.904;4.200;2022-12-11T10:32:21;41.15;;;19.70;;
24157;SDS011;12316;50.904;4.200;2022-12-11T10:34:49;39.65;;;18.92;;
24157;SDS011;12316;50.904;4.200;2022-12-11T10:37:22;42.88;;;18.92;;
24157;SDS011;12316;50.904;4.200;2022-12-11T10:39:48;41.05;;;19.42;;
24157;SDS011;12316;50.904;4.200;2022-12-11T10:42:18;42.20;;;19.35;;
24157;SDS011;12316;50.904;4.200;2022-12-11T10:44:59;39.83;;;18.40;;
24157;SDS011;12316;50.904;4.200;2022-12-11T10:47:26;39.20;;;19.25;;
24157;SDS011;12316;50.904;4.200;2022-12-11T10:49:53;39.85;;;18.83;;
24157;SDS011;12316;50.904;4.200;2022-12-11T10:54:58;35.65;;;17.45;;
24157;SDS011;12316;50.904;4.200;2022-12-11T10:57:35;38.20;;;18.13;;
24157;SDS011;12316;50.904;4.200;2022-12-11T11:00:06;38.38;;;19.20;;
24157;SDS011;12316;50.904;4.200;2022-12-11T11:02:50;38.00;;;18.70;;
24157;SDS011;12316;50.904;4.200;2022-12-11T11:05:26;35.08;;;16.92;;
24157;SDS011;12316;50.904;4.200;2022-12-11T11:10:50;36.60;;;17.25;;
24157;SDS011;12316;50.904;4.200;2022-12-11T11:13:20;35.40;;;17.17;;
24157;SDS011;12316;50.904;4.200;2022-12-11T11:15:47;34.95;;;16.92;;
24157;SDS011;12316;50.904;4.200;2022-12-11T11:18:24;31.15;;;15.73;;
24157;SDS011;12316;50.904;4.200;2022-12-11T11:20:51;33.58;;;16.38;;
24157;SDS011;12316;50.904;4.200;2022-12-11T11:23:18;29.30;;;15.10;;
24157;SDS011;12316;50.904;4.200;2022-12-11T11:25:55;31.00;;;15.05;;
24157;SDS011;12316;50.904;4.200;2022-12-11T11:28:29;30.02;;;15.77;;
24157;SDS011;12316;50.904;4.200;2022-12-11T11:31:04;31.75;;;15.00;;
24157;SDS011;12316;50.904;4.200;2022-12-11T11:33:33;27.73;;;14.70;;
24157;SDS011;12316;50.904;4.200;2022-12-11T11:36:02;28.80;;;14.35;;
24157;SDS011;12316;50.904;4.200;2022-12-11T11:51:30;26.85;;;14.02;;
24157;SDS011;12316;50.904;4.200;2022-12-11T11:54:17;27.02;;;14.13;;
24157;SDS011;12316;50.904;4.200;2022-12-11T11:56:51;27.75;;;13.68;;
24157;SDS011;12316;50.904;4.200;2022-12-11T11:59:24;28.30;;;13.63;;
24157;SDS011;12316;50.904;4.200;2022-12-11T12:02:00;29.02;;;13.88;;
24157;SDS011;12316;50.904;4.200;2022-12-11T12:04:32;26.40;;;13.63;;
24157;SDS011;12316;50.904;4.200;2022-12-11T12:12:40;29.02;;;14.32;;
24157;SDS011;12316;50.904;4.200;2022-12-11T12:15:37;30.67;;;14.90;;
24157;SDS011;12316;50.904;4.200;2022-12-11T12:21:11;31.63;;;15.25;;
24157;SDS011;12316;50.904;4.200;2022-12-11T12:23:51;31.45;;;15.50;;
24157;SDS011;12316;50.904;4.200;2022-12-11T12:26:26;34.95;;;15.80;;
24157;SDS011;12316;50.904;4.200;2022-12-11T12:47:29;35.90;;;17.13;;
24157;SDS011;12316;50.904;4.200;2022-12-11T12:49:58;36.08;;;17.33;;
24157;SDS011;12316;50.904;4.200;2022-12-11T12:52:33;33.58;;;16.30;;
24157;SDS011;12316;50.904;4.200;2022-12-11T12:55:19;34.80;;;17.13;;
24157;SDS011;12316;50.904;4.200;2022-12-11T12:57:49;37.67;;;16.92;;
24157;SDS011;12316;50.904;4.200;2022-12-11T13:00:26;36.63;;;16.88;;
24157;SDS011;12316;50.904;4.200;2022-12-11T13:02:53;37.65;;;17.90;;
24157;SDS011;12316;50.904;4.200;2022-12-11T13:07:54;36.33;;;17.75;;
24157;SDS011;12316;50.904;4.200;2022-12-11T13:10:32;39.83;;;18.42;;
24157;SDS011;12316;50.904;4.200;2022-12-11T13:13:01;39.67;;;18.48;;
24157;SDS011;12316;50.904;4.200;2022-12-11T13:15:38;40.15;;;18.27;;
24157;SDS011;12316;50.904;4.200;2022-12-11T13:20:56;37.75;;;17.73;;
24157;SDS011;12316;50.904;4.200;2022-12-11T13:23:26;39.63;;;18.73;;
24157;SDS011;12316;50.904;4.200;2022-12-11T13:25:59;37.88;;;17.98;;
24157;SDS011;12316;50.904;4.200;2022-12-11T13:28:45;43.33;;;19.27;;
24157;SDS011;12316;50.904;4.200;2022-12-11T13:33:42;43.88;;;19.70;;
24157;SDS011;12316;50.904;4.200;2022-12-11T13:38:38;43.03;;;19.08;;
24157;SDS011;12316;50.904;4.200;2022-12-11T13:41:10;58.08;;;25.10;;
24157;SDS011;12316;50.904;4.200;2022-12-11T13:43:37;53.03;;;23.15;;
24157;SDS011;12316;50.904;4.200;2022-12-11T13:46:07;60.00;;;24.13;;
24157;SDS011;12316;50.904;4.200;2022-12-11T13:48:38;54.97;;;22.52;;
24157;SDS011;12316;50.904;4.200;2022-12-11T13:51:15;42.63;;;19.63;;
24157;SDS011;12316;50.904;4.200;2022-12-11T13:53:41;43.90;;;19.92;;
24157;SDS011;12316;50.904;4.200;2022-12-11T13:56:12;42.67;;;19.13;;
24157;SDS011;12316;50.904;4.200;2022-12-11T13:58:43;43.80;;;20.10;;
24157;SDS011;12316;50.904;4.200;2022-12-11T14:01:10;43.42;;;20.52;;
24157;SDS011;12316;50.904;4.200;2022-12-11T14:03:40;42.40;;;19.70;;
24157;SDS011;12316;50.904;4.200;2022-12-11T14:06:13;42.22;;;19.20;;
24157;SDS011;12316;50.904;4.200;2022-12-11T14:08:41;40.15;;;18.77;;
24157;SDS011;12316;50.904;4.200;2022-12-11T14:11:12;41.50;;;19.50;;
24157;SDS011;12316;50.904;4.200;2022-12-11T14:13:47;36.05;;;17.92;;
24157;SDS011;12316;50.904;4.200;2022-12-11T14:16:18;40.65;;;19.17;;
24157;SDS011;12316;50.904;4.200;2022-12-11T14:18:46;38.72;;;18.92;;
24157;SDS011;12316;50.904;4.200;2022-12-11T14:21:18;40.88;;;19.63;;
24157;SDS011;12316;50.904;4.200;2022-12-11T14:23:53;41.45;;;19.40;;
24157;SDS011;12316;50.904;4.200;2022-12-11T14:26:22;43.22;;;20.35;;
24157;SDS011;12316;50.904;4.200;2022-12-11T14:28:53;45.72;;;20.85;;
24157;SDS011;12316;50.904;4.200;2022-12-11T14:33:54;43.72;;;20.17;;
24157;SDS011;12316;50.904;4.200;2022-12-11T14:36:38;41.00;;;19.05;;
24157;SDS011;12316;50.904;4.200;2022-12-11T14:39:12;36.00;;;19.17;;
24157;SDS011;12316;50.904;4.200;2022-12-11T14:41:48;42.20;;;20.05;;
24157;SDS011;12316;50.904;4.200;2022-12-11T14:44:28;41.50;;;19.33;;
24157;SDS011;12316;50.904;4.200;2022-12-11T14:47:04;42.85;;;20.50;;
24157;SDS011;12316;50.904;4.200;2022-12-11T14:52:16;43.45;;;20.58;;
24157;SDS011;12316;50.904;4.200;2022-12-11T14:55:12;40.60;;;20.23;;
24157;SDS011;12316;50.904;4.200;2022-12-11T14:57:42;42.25;;;19.75;;
24157;SDS011;12316;50.904;4.200;2022-12-11T15:02:55;45.58;;;21.23;;
24157;SDS011;12316;50.904;4.200;2022-12-11T15:05:22;41.20;;;20.25;;
24157;SDS011;12316;50.904;4.200;2022-12-11T15:10:30;42.53;;;21.45;;
24157;SDS011;12316;50.904;4.200;2022-12-11T15:13:00;42.38;;;19.67;;
24157;SDS011;12316;50.904;4.200;2022-12-11T15:15:27;41.92;;;20.25;;
24157;SDS011;12316;50.904;4.200;2022-12-11T15:17:56;38.15;;;20.13;;
24157;SDS011;12316;50.904;4.200;2022-12-11T15:20:25;42.53;;;20.85;;
24157;SDS011;12316;50.904;4.200;2022-12-11T15:22:53;40.83;;;20.38;;
24157;SDS011;12316;50.904;4.200;2022-12-11T15:25:22;39.97;;;20.13;;
24157;SDS011;12316;50.904;4.200;2022-12-11T15:27:52;39.10;;;20.23;;
24157;SDS011;12316;50.904;4.200;2022-12-11T15:35:34;39.42;;;20.25;;
24157;SDS011;12316;50.904;4.200;2022-12-11T15:38:01;39.75;;;20.20;;
24157;SDS011;12316;50.904;4.200;2022-12-11T15:40:27;38.25;;;19.85;;
24157;SDS011;12316;50.904;4.200;2022-12-11T15:42:53;41.15;;;20.17;;
24157;SDS011;12316;50.904;4.200;2022-12-11T15:45:20;41.10;;;20.65;;
24157;SDS011;12316;50.904;4.200;2022-12-11T15:47:48;40.25;;;20.30;;
24157;SDS011;12316;50.904;4.200;2022-12-11T15:52:49;39.17;;;19.30;;
24157;SDS011;12316;50.904;4.200;2022-12-11T15:55:16;41.67;;;19.30;;
24157;SDS011;12316;50.904;4.200;2022-12-11T15:57:46;38.72;;;20.17;;
24157;SDS011;12316;50.904;4.200;2022-12-11T16:00:16;33.28;;;18.02;;
24157;SDS011;12316;50.904;4.200;2022-12-11T16:02:44;37.58;;;19.65;;
24157;SDS011;12316;50.904;4.200;2022-12-11T16:05:10;35.17;;;18.80;;
24157;SDS011;12316;50.904;4.200;2022-12-11T16:07:36;38.10;;;19.63;;
24157;SDS011;12316;50.904;4.200;2022-12-11T16:10:02;41.15;;;21.30;;
24157;SDS011;12316;50.904;4.200;2022-12-11T16:12:28;39.13;;;21.20;;
24157;SDS011;12316;50.904;4.200;2022-12-11T16:14:54;41.47;;;22.00;;
24157;SDS011;12316;50.904;4.200;2022-12-11T16:17:19;41.72;;;22.00;;
24157;SDS011;12316;50.904;4.200;2022-12-11T16:19:45;39.53;;;22.02;;
24157;SDS011;12316;50.904;4.200;2022-12-11T16:22:11;42.35;;;23.02;;
24157;SDS011;12316;50.904;4.200;2022-12-11T16:24:38;39.17;;;22.70;;
24157;SDS011;12316;50.904;4.200;2022-12-11T16:27:04;43.90;;;22.92;;